Time;durP1;ratioP1;P1;durP2;ratioP2;P2;SDS_P1;SDS_P2;PMS_P1;PMS_P2;Temp;Humidity;BMP_temperature;BMP_pressure;BME280_temperature;BME280_humidity;BME280_pressure;Samples;Min_cycle;Max_cycle;Signal;HPM_P1;HPM_P2
2023/09/10 00:03:56;;;;;;;11.00;8.53;;;;;;;;;;6262353;22;20488;-80
2023/09/10 00:09:35;;;;;;;10.40;8.80;;;;;;;;;;6135606;23;20401;-78
2023/09/10 00:23:51;;;;;;;10.20;9.23;;;;;;;;;;6229718;23;20884;-78
2023/09/10 00:35:46;;;;;;;10.53;9.13;;;;;;;;;;5986152;23;20486;-79
2023/09/10 00:38:25;;;;;;;9.83;8.30;;;;;;;;;;6244981;23;20443;-80
2023/09/10 00:43:34;;;;;;;10.30;7.67;;;;;;;;;;6262100;22;20438;-79
2023/09/10 00:46:17;;;;;;;9.70;8.70;;;;;;;;;;6265153;23;20178;-79
2023/09/10 00:49:14;;;;;;;12.17;8.53;;;;;;;;;;6268996;23;20413;-78
2023/09/10 00:55:10;;;;;;;9.07;7.73;;;;;;;;;;6145291;23;20408;-77
2023/09/10 01:07:02;;;;;;;9.77;8.73;;;;;;;;;;6230667;23;20472;-78
2023/09/10 01:09:48;;;;;;;11.40;10.30;;;;;;;;;;6261167;23;20432;-78
2023/09/10 01:17:16;;;;;;;11.00;9.80;;;;;;;;;;6291841;22;20558;-77
2023/09/10 01:23:17;;;;;;;10.30;8.83;;;;;;;;;;6228311;23;20438;-77
2023/09/10 01:26:10;;;;;;;10.53;9.50;;;;;;;;;;6259333;22;20480;-77
2023/09/10 01:28:57;;;;;;;11.93;10.70;;;;;;;;;;6258797;23;20816;-80
2023/09/10 01:31:42;;;;;;;10.10;9.10;;;;;;;;;;6259918;23;20413;-78
2023/09/10 01:34:14;;;;;;;10.63;9.53;;;;;;;;;;6259278;23;20448;-80
2023/09/10 01:36:48;;;;;;;11.90;9.37;;;;;;;;;;6257350;23;20705;-78
2023/09/10 01:39:25;;;;;;;14.10;11.00;;;;;;;;;;6255694;23;21028;-79
2023/09/10 03:47:39;;;;;;;12.37;8.53;;;;;;;;;;6228904;22;20526;-80
2023/09/10 03:50:11;;;;;;;10.23;9.17;;;;;;;;;;6226988;23;21010;-80
2023/09/10 03:52:39;;;;;;;11.73;9.07;;;;;;;;;;6233566;23;20503;-79
2023/09/10 03:55:08;;;;;;;12.47;9.17;;;;;;;;;;6236955;23;20402;-79
2023/09/10 03:57:36;;;;;;;9.60;7.67;;;;;;;;;;6236269;23;20418;-79
2023/09/10 04:00:11;;;;;;;9.50;8.03;;;;;;;;;;6232430;23;20875;-80
2023/09/10 04:02:40;;;;;;;9.20;8.20;;;;;;;;;;6225072;23;20768;-80
2023/09/10 04:05:08;;;;;;;13.77;8.40;;;;;;;;;;6227471;23;20441;-78
2023/09/10 04:07:37;;;;;;;10.07;8.97;;;;;;;;;;6226906;23;20397;-80
2023/09/10 04:10:09;;;;;;;9.70;8.03;;;;;;;;;;6229795;23;20465;-80
2023/09/10 04:12:37;;;;;;;8.40;7.60;;;;;;;;;;6227553;23;20779;-79
2023/09/10 04:15:06;;;;;;;11.30;8.43;;;;;;;;;;6232175;23;20437;-79
2023/09/10 04:17:34;;;;;;;8.93;8.03;;;;;;;;;;6234526;23;20528;-78
2023/09/10 04:20:11;;;;;;;9.27;8.27;;;;;;;;;;6235719;23;20378;-79
2023/09/10 04:22:39;;;;;;;11.43;9.50;;;;;;;;;;6230332;23;20402;-81
2023/09/10 04:25:09;;;;;;;9.90;8.50;;;;;;;;;;6230031;23;20457;-80
2023/09/10 04:27:38;;;;;;;9.80;8.80;;;;;;;;;;6230849;23;20641;-79
2023/09/10 04:30:09;;;;;;;8.80;7.90;;;;;;;;;;6230959;23;20402;-80
2023/09/10 04:32:37;;;;;;;9.77;8.43;;;;;;;;;;6230953;23;20414;-80
2023/09/10 04:35:08;;;;;;;9.07;8.17;;;;;;;;;;6231378;23;20902;-80
2023/09/10 04:37:36;;;;;;;9.10;8.20;;;;;;;;;;6232107;23;20394;-79
2023/09/10 04:43:08;;;;;;;10.07;8.67;;;;;;;;;;6227550;23;20476;-79
2023/09/10 04:52:15;;;;;;;10.30;8.00;;;;;;;;;;6255866;23;20396;-78
2023/09/10 04:54:55;;;;;;;10.40;7.83;;;;;;;;;;6256292;23;20436;-78
2023/09/10 05:00:18;;;;;;;9.27;8.37;;;;;;;;;;6236453;23;20439;-77
2023/09/10 05:02:59;;;;;;;10.00;9.00;;;;;;;;;;6259518;23;20484;-79
2023/09/10 05:05:42;;;;;;;9.37;8.37;;;;;;;;;;6261444;23;20413;-79
2023/09/10 05:08:30;;;;;;;12.70;9.23;;;;;;;;;;6248449;23;20406;-78
2023/09/10 05:14:01;;;;;;;9.53;8.63;;;;;;;;;;6261919;22;20527;-78
2023/09/10 05:17:09;;;;;;;;;;;;;;;;;;;;;
2023/09/10 05:36:38;;;;;;;12.50;10.10;;;;;;;;;;6227205;23;20410;-78
2023/09/10 05:39:53;;;;;;;12.20;9.63;;;;;;;;;;6236891;22;20448;-80
2023/09/10 23:52:15;;;;;;;21.47;18.93;;;;;;;;;;6242485;22;20882;-78
2023/09/10 23:54:51;;;;;;;20.17;17.90;;;;;;;;;;6247214;23;20424;-76
2023/09/10 23:57:24;;;;;;;19.57;17.03;;;;;;;;;;6246180;23;20413;-76
2023/09/10 23:59:54;;;;;;;21.17;18.03;;;;;;;;;;6250804;23;20802;-75
